createdAt,value
2019-04-25T00:00:54.136Z,2.40
2019-04-25T00:01:48.234Z,3.63
2019-04-25T00:02:34.499Z,2.40
2019-04-25T00:03:12.222Z,2.13
2019-04-25T00:03:48.086Z,1.83
2019-04-25T00:04:23.875Z,1.13
2019-04-25T00:04:59.414Z,3.17
2019-04-25T00:05:34.911Z,1.13
2019-04-25T00:06:12.227Z,2.30
2019-04-25T00:06:48.055Z,2.33
2019-04-25T00:07:23.771Z,2.70
2019-04-25T00:07:59.297Z,1.50
2019-04-25T00:08:34.672Z,0.87
2019-04-25T00:09:13.332Z,1.53
2019-04-25T00:09:53.297Z,2.03
2019-04-25T00:10:29.038Z,2.10
2019-04-25T00:11:05.016Z,1.70
2019-04-25T00:11:40.409Z,1.40
2019-04-25T00:12:17.502Z,1.73
2019-04-25T00:12:53.038Z,2.70
2019-04-25T00:13:28.836Z,1.43
2019-04-25T00:14:04.225Z,3.27
2019-04-25T00:14:41.439Z,3.13
2019-04-25T00:15:17.487Z,3.23
2019-04-25T00:15:52.937Z,2.57
2019-04-25T00:16:31.165Z,2.93
2019-04-25T00:17:06.846Z,2.17
2019-04-25T00:17:44.407Z,1.07
2019-04-25T00:18:22.089Z,3.03
2019-04-25T00:18:57.852Z,2.13
2019-04-25T00:19:33.255Z,0.80
2019-04-25T00:20:11.383Z,1.23
2019-04-25T00:20:52.233Z,2.10
2019-04-25T00:21:34.417Z,3.97
2019-04-25T00:22:31.687Z,2.73
2019-04-25T00:23:12.903Z,2.37
2019-04-25T00:23:51.598Z,1.53
2019-04-25T00:24:43.326Z,2.27
2019-04-25T00:25:38.409Z,1.03
2019-04-25T00:26:33.114Z,2.00
2019-04-25T00:27:08.532Z,2.97
2019-04-25T00:27:45.865Z,1.67
2019-04-25T00:28:21.671Z,1.13
2019-04-25T00:28:57.221Z,1.60
2019-04-25T00:29:32.642Z,2.80
2019-04-25T00:30:08.388Z,1.70
2019-04-25T00:30:44.658Z,2.27
2019-04-25T00:31:21.964Z,1.77
2019-04-25T00:31:57.624Z,1.70
2019-04-25T00:32:33.086Z,1.30
2019-04-25T00:33:08.836Z,1.97
2019-04-25T00:33:45.307Z,3.43
2019-04-25T00:34:21.875Z,1.60
2019-04-25T00:34:57.648Z,3.70
2019-04-25T00:35:33.843Z,1.70
2019-04-25T00:36:09.308Z,2.03
2019-04-25T00:36:45.608Z,3.03
2019-04-25T00:37:22.540Z,2.73
2019-04-25T00:37:58.447Z,1.87
2019-04-25T00:38:33.903Z,1.80
2019-04-25T00:39:09.346Z,3.27
2019-04-25T00:39:46.129Z,1.00
2019-04-25T00:40:22.004Z,1.40
2019-04-25T00:40:57.681Z,2.40
2019-04-25T00:41:34.202Z,2.07
2019-04-25T00:42:09.778Z,2.23
2019-04-25T00:42:46.247Z,2.43
2019-04-25T00:43:22.228Z,1.67
2019-04-25T00:43:58.051Z,2.37
2019-04-25T00:44:33.934Z,4.67
2019-04-25T00:45:09.908Z,1.27
2019-04-25T00:45:45.744Z,3.63
2019-04-25T00:46:22.525Z,3.80
2019-04-25T00:46:58.581Z,1.33
2019-04-25T00:47:34.396Z,2.67
2019-04-25T00:48:10.144Z,1.43
2019-04-25T00:48:45.799Z,1.63
2019-04-25T00:49:21.997Z,1.20
2019-04-25T00:49:58.886Z,3.97
2019-04-25T00:50:34.342Z,1.80
2019-04-25T00:51:11.735Z,1.67
2019-04-25T00:51:47.245Z,2.63
2019-04-25T00:52:23.012Z,1.00
2019-04-25T00:52:58.455Z,1.37
2019-04-25T00:53:33.887Z,1.53
2019-04-25T00:54:09.394Z,2.13
2019-04-25T00:54:44.931Z,1.70
2019-04-25T00:55:26.849Z,2.13
2019-04-25T00:55:57.842Z,1.97
2019-04-25T00:56:33.270Z,1.20
2019-04-25T00:57:08.736Z,2.13
2019-04-25T00:57:45.047Z,2.00
2019-04-25T00:58:26.834Z,1.37
2019-04-25T00:59:17.147Z,1.23
2019-04-25T00:59:58.927Z,1.50
2019-04-25T01:00:46.977Z,1.13
2019-04-25T01:01:33.084Z,2.13
2019-04-25T01:02:13.789Z,3.00
2019-04-25T01:02:53.184Z,1.87
2019-04-25T01:03:29.236Z,2.10
2019-04-25T01:04:04.651Z,2.67
2019-04-25T01:04:41.933Z,2.37
2019-04-25T01:05:17.907Z,2.97
2019-04-25T01:05:54.582Z,1.47
2019-04-25T01:06:31.854Z,1.50
2019-04-25T01:07:07.746Z,1.43
2019-04-25T01:07:44.335Z,2.50
2019-04-25T01:08:21.955Z,1.33
2019-04-25T01:08:57.619Z,1.30
2019-04-25T01:09:33.152Z,2.97
2019-04-25T01:10:11.901Z,1.10
2019-04-25T01:10:47.974Z,2.43
2019-04-25T01:11:23.623Z,2.83
2019-04-25T01:11:59.312Z,1.40
2019-04-25T01:12:34.851Z,1.60
2019-04-25T01:13:11.270Z,2.03
2019-04-25T01:13:46.844Z,1.80
2019-04-25T01:14:22.387Z,0.80
2019-04-25T01:14:58.389Z,2.50
2019-04-25T01:15:34.435Z,1.77
2019-04-25T01:16:11.953Z,3.83
2019-04-25T01:16:48.628Z,2.93
2019-04-25T01:17:24.526Z,2.47
2019-04-25T01:18:01.185Z,2.03
2019-04-25T01:18:37.445Z,1.47
2019-04-25T01:19:14.164Z,1.03
2019-04-25T01:19:49.615Z,1.90
2019-04-25T01:20:25.125Z,2.53
2019-04-25T01:21:00.578Z,1.33
2019-04-25T01:21:36.349Z,2.40
2019-04-25T01:22:14.394Z,6.40
2019-04-25T01:22:51.966Z,1.67
2019-04-25T01:23:27.419Z,1.37
2019-04-25T01:24:04.290Z,1.47
2019-04-25T01:24:40.106Z,1.87
2019-04-25T01:25:15.961Z,1.13
2019-04-25T01:25:52.082Z,2.40
2019-04-25T01:26:29.288Z,2.73
2019-04-25T01:27:05.877Z,2.10
2019-04-25T01:27:43.280Z,1.27
2019-04-25T01:28:19.315Z,1.77
2019-04-25T01:28:56.030Z,1.17
2019-04-25T01:29:31.600Z,1.70
2019-04-25T01:30:08.608Z,3.97
2019-04-25T01:30:44.043Z,0.87
2019-04-25T01:31:21.581Z,1.87
2019-04-25T01:31:57.053Z,3.93
2019-04-25T01:32:36.568Z,2.77
2019-04-25T01:33:13.536Z,3.13
2019-04-25T01:33:49.072Z,1.63
2019-04-25T01:34:34.842Z,1.77
2019-04-25T01:35:29.346Z,3.70
2019-04-25T01:36:16.853Z,1.73
2019-04-25T01:37:14.154Z,1.27
2019-04-25T01:38:08.574Z,2.47
2019-04-25T01:38:51.091Z,1.50
2019-04-25T01:39:44.389Z,2.10
2019-04-25T01:40:49.553Z,1.70
2019-04-25T01:41:44.701Z,1.83
2019-04-25T01:42:45.266Z,3.77
2019-04-25T01:43:39.760Z,2.87
2019-04-25T01:44:22.154Z,1.97
2019-04-25T01:44:58.920Z,2.33
2019-04-25T01:45:34.511Z,3.00
2019-04-25T01:46:11.357Z,1.93
2019-04-25T01:46:48.179Z,2.27
2019-04-25T01:47:24.778Z,1.57
2019-04-25T01:48:00.272Z,1.27
2019-04-25T01:48:36.047Z,4.87
2019-04-25T01:49:11.467Z,1.23
2019-04-25T01:49:46.895Z,1.07
2019-04-25T01:50:23.320Z,3.00
2019-04-25T01:50:58.844Z,1.77
2019-04-25T01:51:34.684Z,2.20
2019-04-25T01:52:10.115Z,1.73
2019-04-25T01:52:45.688Z,2.97
2019-04-25T01:53:21.161Z,5.93
2019-04-25T01:53:57.214Z,1.87
2019-04-25T01:54:33.925Z,2.50
2019-04-25T01:55:10.041Z,2.43
2019-04-25T01:55:53.292Z,5.27
2019-04-25T01:56:24.697Z,1.50
2019-04-25T01:57:01.320Z,1.33
2019-04-25T01:57:36.757Z,1.50
2019-04-25T01:58:13.720Z,2.10
2019-04-25T01:58:50.056Z,2.07
2019-04-25T01:59:25.562Z,1.33
2019-04-25T02:00:01.939Z,2.13
2019-04-25T02:00:44.972Z,3.03
2019-04-25T02:01:21.868Z,1.97
2019-04-25T02:01:57.340Z,2.17
2019-04-25T02:02:33.559Z,1.60
2019-04-25T02:03:09.511Z,3.23
2019-04-25T02:03:44.929Z,2.60
2019-04-25T02:04:20.519Z,3.23
2019-04-25T02:04:57.972Z,3.20
2019-04-25T02:05:33.974Z,4.73
2019-04-25T02:06:09.484Z,3.03
2019-04-25T02:06:45.003Z,3.10
2019-04-25T02:07:20.548Z,4.30
2019-04-25T02:07:57.007Z,1.50
2019-04-25T02:08:34.018Z,2.20
2019-04-25T02:09:13.668Z,2.93
2019-04-25T02:09:49.233Z,2.43
2019-04-25T02:10:25.269Z,2.23
2019-04-25T02:11:19.503Z,3.23
2019-04-25T02:12:09.271Z,2.20
2019-04-25T02:12:49.328Z,2.17
2019-04-25T02:13:26.209Z,4.10
2019-04-25T02:14:01.663Z,3.00
2019-04-25T02:14:37.086Z,0.90
2019-04-25T02:15:14.835Z,4.23
2019-04-25T02:15:52.144Z,1.97
2019-04-25T02:16:29.631Z,1.60
2019-04-25T02:17:05.104Z,1.50
2019-04-25T02:17:40.887Z,1.40
2019-04-25T02:18:16.627Z,1.07
2019-04-25T02:18:54.197Z,1.27
2019-04-25T02:19:29.794Z,1.43
2019-04-25T02:20:05.603Z,1.53
2019-04-25T02:20:41.106Z,1.87
2019-04-25T02:21:16.539Z,1.50
2019-04-25T02:21:52.789Z,2.57
2019-04-25T02:22:29.391Z,1.60
2019-04-25T02:23:05.078Z,2.67
2019-04-25T02:23:40.531Z,1.77
2019-04-25T02:24:16.288Z,2.77
2019-04-25T02:24:51.847Z,1.50
2019-04-25T02:25:28.504Z,3.70
2019-04-25T02:26:15.291Z,1.37
2019-04-25T02:26:43.686Z,2.43
2019-04-25T02:27:20.449Z,1.60
2019-04-25T02:27:58.655Z,1.87
2019-04-25T02:28:33.859Z,1.93
2019-04-25T02:29:09.464Z,2.93
2019-04-25T02:29:44.960Z,2.57
2019-04-25T02:30:21.418Z,2.60
2019-04-25T02:31:00.027Z,1.73
2019-04-25T02:31:34.933Z,1.90
2019-04-25T02:32:10.747Z,2.87
2019-04-25T02:32:46.279Z,3.70
2019-04-25T02:33:24.240Z,2.03
2019-04-25T02:34:01.167Z,3.20
2019-04-25T02:34:36.999Z,2.83
2019-04-25T02:35:14.712Z,1.60
2019-04-25T02:35:50.330Z,2.40
2019-04-25T02:36:26.069Z,2.50
2019-04-25T02:37:07.084Z,1.70
2019-04-25T02:37:38.664Z,3.30
2019-04-25T02:38:16.883Z,4.03
2019-04-25T02:38:51.620Z,3.47
2019-04-25T02:39:27.906Z,1.90
2019-04-25T02:40:06.651Z,1.37
2019-04-25T02:40:40.879Z,2.80
2019-04-25T02:41:16.382Z,2.17
2019-04-25T02:41:54.404Z,1.60
2019-04-25T02:42:29.363Z,2.20
2019-04-25T02:43:08.024Z,3.23
2019-04-25T02:43:44.740Z,2.30
2019-04-25T02:44:19.506Z,5.00
2019-04-25T02:45:08.644Z,2.77
2019-04-25T02:45:59.893Z,3.10
2019-04-25T02:46:51.929Z,1.57
2019-04-25T02:47:37.083Z,2.33
2019-04-25T02:48:34.174Z,2.10
2019-04-25T02:49:40.100Z,1.77
2019-04-25T02:50:30.472Z,1.47
2019-04-25T02:51:14.586Z,1.60
2019-04-25T02:52:12.796Z,3.20
2019-04-25T02:53:07.050Z,2.13
2019-04-25T02:53:45.522Z,2.23
2019-04-25T02:54:21.562Z,3.13
2019-04-25T02:54:58.688Z,1.40
2019-04-25T02:55:37.611Z,1.90
2019-04-25T02:56:29.412Z,2.40
2019-04-25T02:56:49.397Z,1.30
2019-04-25T02:57:26.038Z,2.77
2019-04-25T02:58:04.863Z,2.33
2019-04-25T02:58:39.397Z,3.07
2019-04-25T02:59:15.088Z,3.93
2019-04-25T02:59:50.733Z,2.47
2019-04-25T03:00:45.835Z,1.77
2019-04-25T03:01:17.945Z,2.17
2019-04-25T03:01:46.840Z,4.40
2019-04-25T03:02:24.743Z,2.07
2019-04-25T03:03:01.169Z,3.60
2019-04-25T03:03:36.687Z,2.47
2019-04-25T03:04:14.250Z,2.27
2019-04-25T03:04:49.302Z,1.80
2019-04-25T03:05:25.592Z,2.57
2019-04-25T03:06:01.571Z,3.10
2019-04-25T03:06:37.420Z,3.93
2019-04-25T03:07:16.720Z,2.67
2019-04-25T03:07:50.135Z,2.80
2019-04-25T03:08:25.647Z,1.87
2019-04-25T03:09:02.013Z,3.27
2019-04-25T03:09:38.466Z,2.87
2019-04-25T03:10:15.010Z,2.57
2019-04-25T03:10:50.565Z,1.47
2019-04-25T03:11:26.477Z,1.97
2019-04-25T03:12:02.002Z,3.30
2019-04-25T03:12:37.621Z,2.43
2019-04-25T03:13:14.805Z,3.13
2019-04-25T03:13:50.416Z,2.13
2019-04-25T03:14:26.759Z,3.20
2019-04-25T03:15:05.356Z,3.20
2019-04-25T03:15:39.874Z,3.17
2019-04-25T03:16:15.319Z,1.90
2019-04-25T03:16:50.947Z,3.53
2019-04-25T03:17:26.631Z,3.07
2019-04-25T03:18:04.700Z,2.80
2019-04-25T03:18:48.602Z,1.70
2019-04-25T03:19:46.419Z,2.50
2019-04-25T03:20:41.241Z,3.13
2019-04-25T03:21:21.592Z,3.10
2019-04-25T03:21:58.626Z,1.83
2019-04-25T03:22:35.489Z,1.77
2019-04-25T03:23:30.241Z,3.63
2019-04-25T03:24:10.422Z,3.30
2019-04-25T03:24:45.695Z,1.93
2019-04-25T03:25:20.588Z,2.83
2019-04-25T03:25:56.122Z,2.00
2019-04-25T03:26:39.824Z,5.20
2019-04-25T03:27:09.388Z,5.40
2019-04-25T03:27:44.852Z,1.83
2019-04-25T03:28:20.356Z,3.57
2019-04-25T03:28:56.042Z,2.60
2019-04-25T03:29:31.561Z,3.50
2019-04-25T03:30:11.750Z,2.50
2019-04-25T03:30:44.998Z,3.40
2019-04-25T03:31:23.104Z,3.53
2019-04-25T03:31:58.208Z,3.10
2019-04-25T03:32:35.562Z,2.23
2019-04-25T03:33:18.146Z,4.77
2019-04-25T03:33:48.867Z,2.23
2019-04-25T03:34:25.332Z,3.57
2019-04-25T03:35:01.305Z,4.13
2019-04-25T03:35:37.152Z,1.43
2019-04-25T03:36:14.247Z,3.13
2019-04-25T03:36:50.149Z,2.33
2019-04-25T03:37:25.740Z,2.53
2019-04-25T03:38:02.175Z,2.90
2019-04-25T03:38:38.077Z,3.47
2019-04-25T03:39:16.278Z,1.90
2019-04-25T03:39:51.066Z,4.30
2019-04-25T03:40:26.828Z,3.57
2019-04-25T03:41:04.138Z,2.90
2019-04-25T03:41:39.567Z,3.97
2019-04-25T03:42:16.645Z,3.13
2019-04-25T03:42:53.812Z,3.60
2019-04-25T03:43:29.593Z,3.83
2019-04-25T03:44:06.314Z,4.87
2019-04-25T03:44:43.696Z,4.67
2019-04-25T03:45:19.078Z,2.53
2019-04-25T03:45:54.636Z,4.10
2019-04-25T03:46:30.945Z,5.17
2019-04-25T03:47:07.791Z,1.93
2019-04-25T03:47:44.426Z,3.63
2019-04-25T03:48:20.183Z,6.70
2019-04-25T03:48:55.691Z,4.63
2019-04-25T03:49:31.568Z,4.57
2019-04-25T03:50:08.121Z,5.93
2019-04-25T03:50:44.215Z,5.13
2019-04-25T03:51:19.695Z,7.20
2019-04-25T03:51:55.170Z,10.23
2019-04-25T03:52:31.012Z,12.77
2019-04-25T03:53:06.526Z,8.73
2019-04-25T03:53:43.788Z,3.60
2019-04-25T03:54:19.735Z,5.17
2019-04-25T03:54:56.804Z,1.80
2019-04-25T03:55:34.038Z,2.53
2019-04-25T03:56:10.387Z,4.20
2019-04-25T03:56:53.497Z,1.67
2019-04-25T03:57:23.317Z,4.63
2019-04-25T03:57:58.903Z,2.43
2019-04-25T03:58:34.389Z,2.10
2019-04-25T03:59:10.580Z,2.87
2019-04-25T03:59:46.190Z,4.53
2019-04-25T04:00:21.819Z,2.80
2019-04-25T04:00:57.332Z,3.87
2019-04-25T04:01:34.260Z,2.13
2019-04-25T04:02:09.835Z,4.13
2019-04-25T04:02:45.242Z,3.37
2019-04-25T04:03:20.730Z,3.60
2019-04-25T04:03:56.237Z,2.80
2019-04-25T04:04:33.553Z,3.23
2019-04-25T04:05:09.612Z,3.03
2019-04-25T04:05:45.737Z,5.87
2019-04-25T04:06:21.277Z,2.23
2019-04-25T04:06:57.164Z,3.13
2019-04-25T04:07:33.683Z,3.90
2019-04-25T04:08:09.795Z,2.70
2019-04-25T04:08:45.194Z,5.10
2019-04-25T04:09:21.067Z,2.67
2019-04-25T04:09:56.707Z,1.73
2019-04-25T04:10:33.272Z,4.50
2019-04-25T04:11:08.752Z,4.37
2019-04-25T04:11:44.161Z,1.60
2019-04-25T04:12:19.632Z,3.03
2019-04-25T04:12:55.902Z,3.13
2019-04-25T04:13:31.966Z,3.13
2019-04-25T04:14:08.229Z,3.30
2019-04-25T04:14:43.841Z,3.37
2019-04-25T04:15:19.926Z,3.97
2019-04-25T04:15:55.412Z,4.07
2019-04-25T04:16:35.085Z,3.37
2019-04-25T04:17:16.710Z,3.23
2019-04-25T04:18:17.236Z,2.87
2019-04-25T04:18:54.531Z,2.07
2019-04-25T04:19:30.346Z,4.07
2019-04-25T04:20:40.890Z,4.00
2019-04-25T04:21:43.182Z,3.80
2019-04-25T04:22:25.745Z,4.13
2019-04-25T04:23:07.937Z,5.13
2019-04-25T04:24:04.055Z,6.20
2019-04-25T04:24:44.089Z,2.47
2019-04-25T04:25:20.133Z,2.77
2019-04-25T04:25:56.075Z,3.80
2019-04-25T04:26:33.161Z,2.57
2019-04-25T04:27:15.571Z,2.77
2019-04-25T04:27:51.318Z,2.97
2019-04-25T04:28:27.211Z,3.13
2019-04-25T04:29:04.627Z,3.40
2019-04-25T04:29:40.625Z,5.43
2019-04-25T04:30:16.502Z,4.77
2019-04-25T04:30:53.965Z,3.20
2019-04-25T04:31:29.271Z,4.67
2019-04-25T04:32:04.742Z,3.30
2019-04-25T04:32:40.202Z,4.07
2019-04-25T04:33:25.725Z,5.03
2019-04-25T04:33:53.101Z,3.07
2019-04-25T04:34:28.900Z,4.53
2019-04-25T04:35:04.753Z,4.73
2019-04-25T04:35:40.492Z,5.53
2019-04-25T04:36:17.725Z,5.67
2019-04-25T04:36:53.728Z,6.07
2019-04-25T04:37:29.744Z,7.27
2019-04-25T04:38:05.264Z,5.50
2019-04-25T04:38:40.757Z,5.73
2019-04-25T04:39:17.456Z,6.40
2019-04-25T04:39:53.748Z,5.77
2019-04-25T04:40:29.500Z,7.70
2019-04-25T04:41:04.968Z,7.10
2019-04-25T04:41:40.403Z,6.27
2019-04-25T04:42:16.155Z,6.87
2019-04-25T04:42:53.340Z,10.43
2019-04-25T04:43:29.039Z,7.23
2019-04-25T04:44:04.596Z,11.53
2019-04-25T04:44:40.087Z,9.97
2019-04-25T04:45:16.568Z,16.53
2019-04-25T04:45:52.235Z,15.10
2019-04-25T04:46:28.051Z,21.30
2019-04-25T04:47:04.107Z,19.27
2019-04-25T04:47:39.769Z,23.03
2019-04-25T04:48:15.620Z,21.63
2019-04-25T04:48:51.120Z,32.33
2019-04-25T04:49:26.675Z,23.93
2019-04-25T04:50:03.749Z,24.53
2019-04-25T04:50:39.351Z,26.10
2019-04-25T04:51:15.785Z,26.93
2019-04-25T04:51:51.633Z,26.07
2019-04-25T04:52:27.600Z,31.07
2019-04-25T04:53:03.915Z,29.53
2019-04-25T04:53:39.410Z,31.00
2019-04-25T04:54:15.549Z,37.00
2019-04-25T04:55:03.758Z,32.97
2019-04-25T04:55:29.485Z,33.07
2019-04-25T04:56:04.936Z,37.17
2019-04-25T04:56:40.412Z,34.73
2019-04-25T04:57:26.523Z,36.23
2019-04-25T04:57:54.332Z,33.43
2019-04-25T04:58:30.152Z,37.00
2019-04-25T04:59:06.109Z,34.17
2019-04-25T04:59:41.640Z,33.53
2019-04-25T05:00:18.660Z,35.83
2019-04-25T05:00:54.169Z,34.07
2019-04-25T05:01:31.333Z,37.17
2019-04-25T05:02:33.218Z,35.50
2019-04-25T05:03:34.342Z,35.73
2019-04-25T05:04:19.263Z,35.77
2019-04-25T05:05:26.222Z,32.30
2019-04-25T05:06:11.014Z,27.40
2019-04-25T05:07:00.754Z,29.83
2019-04-25T05:07:43.931Z,27.17
2019-04-25T05:08:25.141Z,28.33
2019-04-25T05:09:08.856Z,27.23
2019-04-25T05:09:44.296Z,28.60
2019-04-25T05:10:20.157Z,25.90
2019-04-25T05:10:57.350Z,27.37
2019-04-25T05:11:33.558Z,21.60
2019-04-25T05:12:09.028Z,26.23
2019-04-25T05:12:44.826Z,22.83
2019-04-25T05:13:20.735Z,24.80
2019-04-25T05:13:56.223Z,21.83
2019-04-25T05:14:31.688Z,25.40
2019-04-25T05:15:07.933Z,18.17
2019-04-25T05:15:44.658Z,13.23
2019-04-25T05:16:20.532Z,15.20
2019-04-25T05:16:56.376Z,13.17
2019-04-25T05:17:34.154Z,11.93
2019-04-25T05:18:09.397Z,11.93
2019-04-25T05:18:45.130Z,12.47
2019-04-25T05:19:20.639Z,12.23
2019-04-25T05:19:56.273Z,10.40
2019-04-25T05:20:31.844Z,11.33
2019-04-25T05:21:07.967Z,10.40
2019-04-25T05:21:45.507Z,10.53
2019-04-25T05:22:20.594Z,9.73
2019-04-25T05:22:56.626Z,10.37
2019-04-25T05:23:32.091Z,9.03
2019-04-25T05:24:07.685Z,11.10
2019-04-25T05:24:43.828Z,9.03
2019-04-25T05:25:20.629Z,10.77
2019-04-25T05:25:56.341Z,6.47
2019-04-25T05:26:31.785Z,8.67
2019-04-25T05:27:07.576Z,5.83
2019-04-25T05:27:59.084Z,8.77
2019-04-25T05:28:20.970Z,5.60
2019-04-25T05:28:56.582Z,5.97
2019-04-25T05:29:33.897Z,7.87
2019-04-25T05:30:14.583Z,8.93
2019-04-25T05:30:58.316Z,6.17
2019-04-25T05:31:43.925Z,3.90
2019-04-25T05:32:19.833Z,5.97
2019-04-25T05:32:55.522Z,3.83
2019-04-25T05:33:31.039Z,3.53
2019-04-25T05:34:06.475Z,5.70
2019-04-25T05:34:42.257Z,4.67
2019-04-25T05:35:18.175Z,4.70
2019-04-25T05:35:55.073Z,4.90
2019-04-25T05:36:39.635Z,7.27
2019-04-25T05:37:15.520Z,5.67
2019-04-25T05:37:53.344Z,3.83
2019-04-25T05:38:29.131Z,4.00
2019-04-25T05:39:06.661Z,4.07
2019-04-25T05:39:43.450Z,5.77
2019-04-25T05:40:20.137Z,4.50
2019-04-25T05:41:00.120Z,3.80
2019-04-25T05:41:41.997Z,5.23
2019-04-25T05:42:25.707Z,6.27
2019-04-25T05:43:08.018Z,6.17
2019-04-25T05:43:43.571Z,4.27
2019-04-25T05:44:19.008Z,4.70
2019-04-25T05:44:56.858Z,4.57
2019-04-25T05:45:34.009Z,4.93
2019-04-25T05:46:09.711Z,4.20
2019-04-25T05:46:45.332Z,6.37
2019-04-25T05:47:23.097Z,5.07
2019-04-25T05:47:58.810Z,5.60
2019-04-25T05:48:34.269Z,3.83
2019-04-25T05:49:09.721Z,3.93
2019-04-25T05:49:45.163Z,6.97
2019-04-25T05:50:20.708Z,4.23
2019-04-25T05:50:56.541Z,4.57
2019-04-25T05:51:33.756Z,4.10
2019-04-25T05:52:09.405Z,4.47
2019-04-25T05:52:45.945Z,8.67
2019-04-25T05:53:22.319Z,5.80
2019-04-25T05:53:59.314Z,4.37
2019-04-25T05:54:34.981Z,6.60
2019-04-25T05:55:10.758Z,7.27
2019-04-25T05:55:46.208Z,4.30
2019-04-25T05:56:25.824Z,6.53
2019-04-25T05:56:59.853Z,6.10
2019-04-25T05:57:45.480Z,4.57
2019-04-25T05:58:13.828Z,3.67
2019-04-25T05:58:49.470Z,6.23
2019-04-25T05:59:26.692Z,6.57
2019-04-25T06:00:03.683Z,6.90
2019-04-25T06:00:39.544Z,5.50
2019-04-25T06:01:15.367Z,4.53
2019-04-25T06:01:51.689Z,5.93
2019-04-25T06:02:27.819Z,3.07
2019-04-25T06:03:03.688Z,5.73
2019-04-25T06:03:40.016Z,6.57
2019-04-25T06:04:15.597Z,3.80
2019-04-25T06:04:51.088Z,4.77
2019-04-25T06:05:27.636Z,3.70
2019-04-25T06:06:03.820Z,4.83
2019-04-25T06:06:39.419Z,4.40
2019-04-25T06:07:14.885Z,5.40
2019-04-25T06:07:50.337Z,5.23
2019-04-25T06:08:28.080Z,5.77
2019-04-25T06:09:15.826Z,4.00
2019-04-25T06:10:17.183Z,4.93
2019-04-25T06:11:04.093Z,3.67
2019-04-25T06:11:50.416Z,3.70
2019-04-25T06:12:46.532Z,3.97
2019-04-25T06:13:40.917Z,3.30
2019-04-25T06:14:18.267Z,6.23
2019-04-25T06:14:54.687Z,3.37
2019-04-25T06:15:30.629Z,2.73
2019-04-25T06:16:14.163Z,4.60
2019-04-25T06:16:50.143Z,3.33
2019-04-25T06:17:36.872Z,4.87
2019-04-25T06:18:28.960Z,4.10
2019-04-25T06:19:18.511Z,3.20
2019-04-25T06:19:53.777Z,2.57
2019-04-25T06:20:34.311Z,2.73
2019-04-25T06:21:10.816Z,3.90
2019-04-25T06:21:46.326Z,6.00
2019-04-25T06:22:31.277Z,3.73
2019-04-25T06:23:16.420Z,2.00
2019-04-25T06:24:16.990Z,3.63
2019-04-25T06:24:59.928Z,4.03
2019-04-25T06:25:39.598Z,4.50
2019-04-25T06:26:22.974Z,2.13
2019-04-25T06:26:59.321Z,2.77
2019-04-25T06:27:38.464Z,2.93
2019-04-25T06:28:16.652Z,5.03
2019-04-25T06:28:58.837Z,5.63
2019-04-25T06:29:29.440Z,3.70
2019-04-25T06:30:12.059Z,3.13
2019-04-25T06:30:47.495Z,2.73
2019-04-25T06:31:24.079Z,4.70
2019-04-25T06:32:06.675Z,3.37
2019-04-25T06:32:37.854Z,3.87
2019-04-25T06:33:13.428Z,3.63
2019-04-25T06:33:49.153Z,2.53
2019-04-25T06:34:25.393Z,2.43
2019-04-25T06:35:01.979Z,5.80
2019-04-25T06:35:37.430Z,2.97
2019-04-25T06:36:13.968Z,3.97
2019-04-25T06:36:49.937Z,4.40
2019-04-25T06:37:25.863Z,4.23
2019-04-25T06:38:03.592Z,5.63
2019-04-25T06:38:39.132Z,2.97
2019-04-25T06:39:14.630Z,2.80
2019-04-25T06:39:50.218Z,2.07
2019-04-25T06:40:29.745Z,3.77
2019-04-25T06:41:05.327Z,4.40
2019-04-25T06:41:41.264Z,3.73
2019-04-25T06:42:17.068Z,2.97
2019-04-25T06:42:54.926Z,3.50
2019-04-25T06:43:30.156Z,3.93
2019-04-25T06:44:07.539Z,3.40
2019-04-25T06:45:03.557Z,6.63
2019-04-25T06:46:09.919Z,5.43
2019-04-25T06:47:03.371Z,5.50
2019-04-25T06:47:53.995Z,3.23
2019-04-25T06:48:48.508Z,5.67
2019-04-25T06:49:27.829Z,1.93
2019-04-25T06:50:04.345Z,3.20
2019-04-25T06:50:40.229Z,2.73
2019-04-25T06:51:15.701Z,5.97
2019-04-25T06:51:55.079Z,3.60
2019-04-25T06:52:31.995Z,5.67
2019-04-25T06:53:07.704Z,5.67
2019-04-25T06:53:43.620Z,5.40
2019-04-25T06:54:19.450Z,5.93
2019-04-25T06:54:55.232Z,4.73
2019-04-25T06:55:30.846Z,11.80
2019-04-25T06:56:06.600Z,4.00
2019-04-25T06:56:43.475Z,4.57
2019-04-25T06:57:19.492Z,5.83
2019-04-25T06:57:55.016Z,3.47
2019-04-25T06:58:30.623Z,2.60
2019-04-25T06:59:06.110Z,2.50
2019-04-25T06:59:43.647Z,6.30
2019-04-25T07:00:19.932Z,6.60
2019-04-25T07:01:00.578Z,1.93
2019-04-25T07:01:35.116Z,6.70
2019-04-25T07:02:10.570Z,5.87
2019-04-25T07:02:46.685Z,6.60
2019-04-25T07:03:23.432Z,5.70
2019-04-25T07:04:01.051Z,4.10
2019-04-25T07:04:36.475Z,3.20
2019-04-25T07:05:26.132Z,2.90
2019-04-25T07:05:50.764Z,6.03
2019-04-25T07:06:27.179Z,4.70
2019-04-25T07:07:10.689Z,5.50
2019-04-25T07:07:40.196Z,3.33
2019-04-25T07:08:15.658Z,2.07
2019-04-25T07:08:51.155Z,2.90
2019-04-25T07:09:29.601Z,4.75
2019-04-25T07:10:06.153Z,4.72
2019-04-25T07:10:41.952Z,7.03
2019-04-25T07:11:17.517Z,5.50
2019-04-25T07:11:54.021Z,4.40
2019-04-25T07:12:32.456Z,5.03
2019-04-25T07:13:07.165Z,3.83
2019-04-25T07:13:43.883Z,3.35
2019-04-25T07:14:20.156Z,4.22
2019-04-25T07:14:55.684Z,5.10
2019-04-25T07:15:31.875Z,5.73
2019-04-25T07:16:08.447Z,4.95
2019-04-25T07:16:44.958Z,3.30
2019-04-25T07:17:20.429Z,3.37
2019-04-25T07:17:56.918Z,4.60
2019-04-25T07:18:35.497Z,3.40
2019-04-25T07:19:09.503Z,3.03
2019-04-25T07:19:45.541Z,2.40
2019-04-25T07:20:21.388Z,5.07
2019-04-25T07:20:57.431Z,3.80
2019-04-25T07:21:34.669Z,3.53
2019-04-25T07:22:10.748Z,3.10
2019-04-25T07:22:46.192Z,4.00
2019-04-25T07:23:23.674Z,3.97
2019-04-25T07:23:59.312Z,3.40
2019-04-25T07:24:35.423Z,4.05
2019-04-25T07:25:14.027Z,4.72
2019-04-25T07:25:59.023Z,2.77
2019-04-25T07:26:56.547Z,4.37
2019-04-25T07:27:53.321Z,7.00
2019-04-25T07:28:47.126Z,4.08
2019-04-25T07:29:37.468Z,3.90
2019-04-25T07:30:45.466Z,3.73
2019-04-25T07:31:14.909Z,4.10
2019-04-25T07:31:57.806Z,2.93
2019-04-25T07:32:38.900Z,4.57
2019-04-25T07:33:21.422Z,5.50
2019-04-25T07:34:01.095Z,5.62
2019-04-25T07:34:36.701Z,4.37
2019-04-25T07:35:13.517Z,3.87
2019-04-25T07:35:49.469Z,5.17
2019-04-25T07:36:25.750Z,4.42
2019-04-25T07:37:01.293Z,3.97
2019-04-25T07:37:41.509Z,3.52
2019-04-25T07:38:15.440Z,5.85
2019-04-25T07:39:05.468Z,5.20
2019-04-25T07:39:29.643Z,2.45
2019-04-25T07:40:07.225Z,20.92
2019-04-25T07:40:43.955Z,3.85
2019-04-25T07:41:20.450Z,3.05
2019-04-25T07:41:56.288Z,4.90
2019-04-25T07:42:31.854Z,3.20
2019-04-25T07:43:07.842Z,4.33
2019-04-25T07:43:44.110Z,6.13
2019-04-25T07:44:28.492Z,4.00
2019-04-25T07:44:57.865Z,2.83
2019-04-25T07:45:34.735Z,3.67
2019-04-25T07:46:11.285Z,6.05
2019-04-25T07:46:47.335Z,8.30
2019-04-25T07:47:24.220Z,8.05
2019-04-25T07:47:59.790Z,4.27
2019-04-25T07:48:37.158Z,3.70
2019-04-25T07:49:13.454Z,2.72
2019-04-25T07:49:50.188Z,6.85
2019-04-25T07:50:26.843Z,3.77
2019-04-25T07:51:03.723Z,6.45
2019-04-25T07:51:39.329Z,5.80
2019-04-25T07:52:14.762Z,4.03
2019-04-25T07:52:50.282Z,5.83
2019-04-25T07:53:28.099Z,4.60
2019-04-25T07:54:04.525Z,4.50
2019-04-25T07:54:40.549Z,4.97
2019-04-25T07:55:16.124Z,5.13
2019-04-25T07:55:51.615Z,7.70
2019-04-25T07:56:27.797Z,6.67
2019-04-25T07:57:04.209Z,5.40
2019-04-25T07:57:39.682Z,4.90
2019-04-25T07:58:16.021Z,4.97
2019-04-25T07:58:53.192Z,4.78
2019-04-25T07:59:29.365Z,3.73
2019-04-25T08:00:10.265Z,5.55
2019-04-25T08:00:45.829Z,6.12
2019-04-25T08:01:23.531Z,4.62
2019-04-25T08:02:00.218Z,4.83
2019-04-25T08:02:36.310Z,7.25
2019-04-25T08:03:13.786Z,7.28
2019-04-25T08:03:50.414Z,4.80
2019-04-25T08:04:25.870Z,5.53
2019-04-25T08:05:04.422Z,4.35
2019-04-25T08:05:39.906Z,3.02
2019-04-25T08:06:15.330Z,4.67
2019-04-25T08:06:51.801Z,4.75
2019-04-25T08:07:28.131Z,4.33
2019-04-25T08:08:04.432Z,4.45
2019-04-25T08:08:40.497Z,3.87
2019-04-25T08:09:16.035Z,7.50
2019-04-25T08:09:51.535Z,7.17
2019-04-25T08:10:29.965Z,5.62
2019-04-25T08:11:08.803Z,4.65
2019-04-25T08:11:44.868Z,4.67
2019-04-25T08:12:21.178Z,5.07
2019-04-25T08:12:57.394Z,6.47
2019-04-25T08:13:45.367Z,7.95
2019-04-25T08:14:45.977Z,6.00
2019-04-25T08:15:39.301Z,5.15
2019-04-25T08:16:16.274Z,6.13
2019-04-25T08:16:54.155Z,4.50
2019-04-25T08:17:47.826Z,3.00
2019-04-25T08:18:25.482Z,5.97
2019-04-25T08:19:03.967Z,2.52
2019-04-25T08:19:39.687Z,7.65
2019-04-25T08:20:17.235Z,7.62
2019-04-25T08:20:53.386Z,4.70
2019-04-25T08:21:29.808Z,2.77
2019-04-25T08:22:06.158Z,4.25
2019-04-25T08:22:55.746Z,2.87
2019-04-25T08:23:21.823Z,6.35
2019-04-25T08:23:59.556Z,4.92
2019-04-25T08:24:37.262Z,3.67
2019-04-25T08:25:13.885Z,3.35
2019-04-25T08:25:50.079Z,3.80
2019-04-25T08:26:25.614Z,5.77
2019-04-25T08:27:01.211Z,4.83